Big Bear Station Historical Data
Daily Summary for February 16, 2019 Units:  English    Metric   Both
Next Day »
Daily Weekly Monthly Yearly Custom
  High: Low: Average:
Temperature: 36.3 °F 20.7 °F 26 °F
Dew Point: 26.3 °F 14.6 °F 20.7 °F
Humidity: 97% 49% 81%
Wind Speed: 9.4mph 0.0mph 3.8mph
Wind Gust: -999.0mph - -
Wind- - WNW
Pressure: 23.40 in 23.33 in -
Precipitation: 0.00 in    
Historical Graphs
 
 
Tabular Data for February 16, 2019
Time Temperature Dew Point Pressure Wind Wind Speed Wind Gust Humidity Rainfall Rate (Hourly)
00:01 27.0 °F 26.0 °F 23.33 in Calm   -999.0 mph 96% 0.00 in
00:17 27.0 °F 26.3 °F 23.34 in NW 7.8 mph -999.0 mph 97% 0.00 in
00:32 26.8 °F 26.1 °F 23.34 in WSW 1.7 mph -999.0 mph 97% 0.00 in
00:47 26.8 °F 26.1 °F 23.34 in SSE 2.7 mph -999.0 mph 97% 0.00 in
01:02 26.4 °F 25.4 °F 23.35 in North 9.4 mph -999.0 mph 96% 0.00 in
01:18 26.2 °F 25.0 °F 23.35 in NW 4.7 mph -999.0 mph 95% 0.00 in
01:33 25.9 °F 24.4 °F 23.34 in ESE 1.7 mph -999.0 mph 94% 0.00 in
01:48 25.5 °F 24.0 °F 23.34 in NNW 4.2 mph -999.0 mph 94% 0.00 in
02:03 25.3 °F 23.6 °F 23.34 in NW 6.8 mph -999.0 mph 93% 0.00 in
02:18 25.3 °F 24.1 °F 23.33 in North 2.7 mph -999.0 mph 95% 0.00 in
02:34 25.2 °F 24.0 °F 23.34 in NW 3.7 mph -999.0 mph 95% 0.00 in
02:49 25.2 °F 24.2 °F 23.34 in NNW 1.7 mph -999.0 mph 96% 0.00 in
03:04 25.2 °F 24.0 °F 23.34 in NNW 2.7 mph -999.0 mph 95% 0.00 in
03:20 24.3 °F 22.8 °F 23.34 in Calm   -999.0 mph 94% 0.00 in
03:35 23.5 °F 21.3 °F 23.34 in NNE 4.2 mph -999.0 mph 91% 0.00 in
03:50 22.8 °F 20.8 °F 23.34 in Calm   -999.0 mph 92% 0.00 in
04:06 22.6 °F 20.4 °F 23.34 in Calm   -999.0 mph 91% 0.00 in
04:21 21.7 °F 19.5 °F 23.34 in WNW 2.7 mph -999.0 mph 91% 0.00 in
04:36 21.6 °F 19.1 °F 23.34 in East 2.7 mph -999.0 mph 90% 0.00 in
04:51 21.6 °F 19.4 °F 23.35 in West 2.7 mph -999.0 mph 91% 0.00 in
05:07 21.2 °F 19.2 °F 23.35 in NW 6.3 mph -999.0 mph 92% 0.00 in
05:22 20.8 °F 19.3 °F 23.35 in NW 4.7 mph -999.0 mph 94% 0.00 in
05:38 21.0 °F 18.8 °F 23.35 in NW 5.8 mph -999.0 mph 91% 0.00 in
05:53 20.7 °F 18.2 °F 23.36 in West 7.8 mph -999.0 mph 90% 0.00 in
06:09 21.4 °F 18.7 °F 23.36 in NNW 8.9 mph -999.0 mph 89% 0.00 in
06:24 21.7 °F 18.2 °F 23.36 in NW 7.8 mph -999.0 mph 86% 0.00 in
06:39 21.6 °F 18.1 °F 23.37 in NW 6.8 mph -999.0 mph 86% 0.00 in
06:55 21.4 °F 17.9 °F 23.37 in NW 6.8 mph -999.0 mph 86% 0.00 in
07:10 21.9 °F 18.4 °F 23.37 in NW 6.3 mph -999.0 mph 86% 0.00 in
07:25 21.7 °F 17.9 °F 23.38 in NW 5.8 mph -999.0 mph 85% 0.00 in
07:40 21.6 °F 17.5 °F 23.38 in North 5.3 mph -999.0 mph 84% 0.00 in
07:56 21.6 °F 17.5 °F 23.38 in WNW 4.2 mph -999.0 mph 84% 0.00 in
08:11 21.6 °F 17.2 °F 23.38 in NNW 6.8 mph -999.0 mph 83% 0.00 in
08:26 22.1 °F 18.0 °F 23.39 in NW 4.7 mph -999.0 mph 84% 0.00 in
08:41 22.6 °F 17.1 °F 23.40 in ESE 4.7 mph -999.0 mph 79% 0.00 in
08:57 23.2 °F 17.4 °F 23.39 in NNE 2.2 mph -999.0 mph 78% 0.00 in
09:12 24.1 °F 17.6 °F 23.39 in WNW 6.3 mph -999.0 mph 76% 0.00 in
09:27 24.4 °F 18.2 °F 23.40 in NW 2.2 mph -999.0 mph 77% 0.00 in
09:43 25.0 °F 19.7 °F 23.40 in West 2.2 mph -999.0 mph 80% 0.00 in
09:58 25.9 °F 20.6 °F 23.40 in WNW 3.2 mph -999.0 mph 80% 0.00 in
10:13 27.5 °F 20.3 °F 23.40 in NNW 3.7 mph -999.0 mph 74% 0.00 in
10:28 28.6 °F 21.0 °F 23.40 in NNW 1.7 mph -999.0 mph 73% 0.00 in
10:44 30.6 °F 21.6 °F 23.40 in NE 1.7 mph -999.0 mph 69% 0.00 in
11:00 32.2 °F 21.4 °F 23.40 in North 2.2 mph -999.0 mph 64% 0.00 in
11:15 31.6 °F 20.4 °F 23.40 in NW 3.7 mph -999.0 mph 63% 0.00 in
11:30 32.5 °F 19.8 °F 23.40 in NW 3.7 mph -999.0 mph 59% 0.00 in
11:45 32.0 °F 21.2 °F 23.40 in ENE 1.1 mph -999.0 mph 64% 0.00 in
12:00 33.6 °F 21.6 °F 23.39 in WNW 3.7 mph -999.0 mph 61% 0.00 in
12:16 33.4 °F 20.6 °F 23.38 in NNW 4.7 mph -999.0 mph 59% 0.00 in
12:31 36.3 °F 20.8 °F 23.38 in NW 2.2 mph -999.0 mph 53% 0.00 in
12:46 34.9 °F 20.8 °F 23.37 in NNW 6.3 mph -999.0 mph 56% 0.00 in
13:01 33.1 °F 21.5 °F 23.37 in NNW 7.8 mph -999.0 mph 62% 0.00 in
13:16 31.5 °F 20.3 °F 23.36 in NW 2.2 mph -999.0 mph 63% 0.00 in
13:32 30.6 °F 19.9 °F 23.36 in North 2.2 mph -999.0 mph 64% 0.00 in
13:47 30.7 °F 19.2 °F 23.36 in North 3.7 mph -999.0 mph 62% 0.00 in
14:03 30.6 °F 17.2 °F 23.36 in WNW 4.7 mph -999.0 mph 57% 0.00 in
14:18 30.6 °F 16.8 °F 23.36 in SW 3.2 mph -999.0 mph 56% 0.00 in
14:33 31.6 °F 14.6 °F 23.35 in NW 4.7 mph -999.0 mph 49% 0.00 in
14:48 30.4 °F 17.8 °F 23.35 in NW 3.2 mph -999.0 mph 59% 0.00 in
15:03 30.0 °F 19.3 °F 23.35 in NNW 5.3 mph -999.0 mph 64% 0.00 in
15:19 29.3 °F 20.0 °F 23.35 in NW 4.7 mph -999.0 mph 68% 0.00 in
15:34 29.1 °F 18.8 °F 23.35 in North 5.3 mph -999.0 mph 65% 0.00 in
15:49 28.9 °F 17.5 °F 23.35 in NNW 3.7 mph -999.0 mph 62% 0.00 in
16:04 28.8 °F 18.5 °F 23.35 in WNW 6.3 mph -999.0 mph 65% 0.00 in
16:20 28.4 °F 18.8 °F 23.35 in NW 3.2 mph -999.0 mph 67% 0.00 in
16:35 27.7 °F 20.2 °F 23.36 in NW 1.1 mph -999.0 mph 73% 0.00 in
16:51 27.0 °F 21.7 °F 23.35 in Calm   -999.0 mph 80% 0.00 in
17:06 26.6 °F 23.0 °F 23.35 in SSW 1.1 mph -999.0 mph 86% 0.00 in
17:21 26.6 °F 23.3 °F 23.35 in NW 4.2 mph -999.0 mph 87% 0.00 in
17:36 26.4 °F 22.8 °F 23.35 in WNW 1.7 mph -999.0 mph 86% 0.00 in
17:51 26.4 °F 23.3 °F 23.35 in WSW 2.2 mph -999.0 mph 88% 0.00 in
18:07 26.2 °F 23.1 °F 23.35 in ESE 2.2 mph -999.0 mph 88% 0.00 in
18:23 26.1 °F 23.0 °F 23.35 in NW 5.3 mph -999.0 mph 88% 0.00 in
18:39 25.7 °F 22.4 °F 23.36 in NW 8.9 mph -999.0 mph 87% 0.00 in
18:54 25.5 °F 21.1 °F 23.36 in NNW 3.2 mph -999.0 mph 83% 0.00 in
19:09 25.3 °F 20.9 °F 23.35 in WNW 2.7 mph -999.0 mph 83% 0.00 in
19:24 25.0 °F 21.7 °F 23.35 in South 2.2 mph -999.0 mph 87% 0.00 in
19:39 25.0 °F 21.9 °F 23.35 in Calm   -999.0 mph 88% 0.00 in
19:55 24.8 °F 21.8 °F 23.35 in West 3.2 mph -999.0 mph 88% 0.00 in
20:10 24.8 °F 20.9 °F 23.35 in WNW 2.2 mph -999.0 mph 85% 0.00 in
20:25 24.3 °F 21.0 °F 23.35 in SSW 2.7 mph -999.0 mph 87% 0.00 in
20:40 24.1 °F 21.3 °F 23.34 in NW 4.7 mph -999.0 mph 89% 0.00 in
20:55 24.1 °F 21.3 °F 23.35 in West 3.2 mph -999.0 mph 89% 0.00 in
21:11 24.3 °F 21.5 °F 23.35 in Calm   -999.0 mph 89% 0.00 in
21:26 23.9 °F 21.1 °F 23.35 in South 3.7 mph -999.0 mph 89% 0.00 in
21:41 24.1 °F 21.6 °F 23.34 in NW 3.7 mph -999.0 mph 90% 0.00 in
21:57 24.1 °F 21.6 °F 23.34 in NNW 4.2 mph -999.0 mph 90% 0.00 in
22:12 24.1 °F 21.3 °F 23.33 in SSW 2.2 mph -999.0 mph 89% 0.00 in
22:27 24.1 °F 21.3 °F 23.34 in North 2.7 mph -999.0 mph 89% 0.00 in
22:43 24.1 °F 21.6 °F 23.33 in WNW 4.2 mph -999.0 mph 90% 0.00 in
22:58 24.1 °F 21.6 °F 23.33 in NW 4.7 mph -999.0 mph 90% 0.00 in
23:14 24.1 °F 21.3 °F 23.34 in WNW 7.8 mph -999.0 mph 89% 0.00 in
23:29 23.9 °F 20.9 °F 23.33 in NW 4.2 mph -999.0 mph 88% 0.00 in
23:44 23.7 °F 20.1 °F 23.33 in SSW 5.8 mph -999.0 mph 86% 0.00 in
23:59 23.5 °F 19.9 °F 23.33 in NW 5.8 mph -999.0 mph 86% 0.00 in
Big Bear CA Weather